createdAt,value
2019-05-22T00:02:34.551Z,100.00
2019-05-22T00:16:18.034Z,100.00
2019-05-22T00:18:49.431Z,100.00
2019-05-22T00:21:20.625Z,100.00
2019-05-22T00:23:52.403Z,100.00
2019-05-22T00:26:22.061Z,100.00
2019-05-22T00:28:51.581Z,100.00
2019-05-22T00:31:21.937Z,100.00
2019-05-22T00:33:51.957Z,100.00
2019-05-22T00:36:21.311Z,100.00
2019-05-22T00:38:50.893Z,100.00
2019-05-22T00:41:23.164Z,100.00
2019-05-22T00:43:53.000Z,100.00
2019-05-22T00:46:24.492Z,100.00
2019-05-22T00:48:54.262Z,100.00
2019-05-22T00:51:41.345Z,100.00
2019-05-22T00:54:38.371Z,100.00
2019-05-22T00:57:14.984Z,100.00
2019-05-22T00:59:45.208Z,100.00
2019-05-22T01:02:18.795Z,100.00
2019-05-22T01:04:49.502Z,100.00
2019-05-22T01:07:18.921Z,100.00
2019-05-22T01:09:52.173Z,100.00
2019-05-22T01:12:29.360Z,100.00
2019-05-22T01:15:04.722Z,100.00
2019-05-22T01:17:36.730Z,100.00
2019-05-22T01:20:09.893Z,100.00
2019-05-22T01:22:39.579Z,100.00
2019-05-22T01:25:11.915Z,100.00
2019-05-22T01:27:42.234Z,100.00
2019-05-22T01:30:18.836Z,100.00
2019-05-22T01:32:51.954Z,100.00
2019-05-22T01:35:26.941Z,100.00
2019-05-22T01:37:57.612Z,100.00
2019-05-22T01:40:41.499Z,100.00
2019-05-22T01:43:14.160Z,100.00
2019-05-22T01:45:52.492Z,100.00
2019-05-22T01:48:27.418Z,100.00
2019-05-22T01:50:57.694Z,100.00
2019-05-22T01:53:38.524Z,100.00
2019-05-22T01:56:11.274Z,100.00
2019-05-22T01:58:42.410Z,100.00
2019-05-22T02:01:19.162Z,100.00
2019-05-22T02:03:48.185Z,100.00
2019-05-22T02:06:19.320Z,100.00
2019-05-22T02:08:53.086Z,100.00
2019-05-22T02:11:24.510Z,100.00
2019-05-22T02:14:01.392Z,100.00
2019-05-22T02:16:31.981Z,100.00
2019-05-22T02:19:03.066Z,100.00
2019-05-22T02:21:32.682Z,100.00
2019-05-22T02:24:01.909Z,100.00
2019-05-22T02:26:32.696Z,100.00
2019-05-22T02:29:02.845Z,100.00
2019-05-22T02:31:34.161Z,100.00
2019-05-22T02:34:05.518Z,100.00
2019-05-22T02:36:37.005Z,100.00
2019-05-22T02:39:13.399Z,100.00
2019-05-22T02:41:47.179Z,100.00
2019-05-22T02:44:16.383Z,100.00
2019-05-22T02:46:46.267Z,100.00
2019-05-22T02:49:18.358Z,100.00
2019-05-22T02:51:48.639Z,100.00
2019-05-22T02:54:18.369Z,100.00
2019-05-22T02:56:47.521Z,100.00
2019-05-22T02:59:18.079Z,100.00
2019-05-22T03:01:47.528Z,100.00
2019-05-22T03:04:18.978Z,100.00
2019-05-22T03:06:48.857Z,100.00
2019-05-22T03:09:25.737Z,100.00
2019-05-22T03:12:03.942Z,100.00
2019-05-22T03:14:34.987Z,100.00
2019-05-22T03:17:08.466Z,100.00
2019-05-22T03:19:42.700Z,100.00
2019-05-22T03:22:26.725Z,100.00
2019-05-22T03:24:57.911Z,100.00
2019-05-22T03:27:47.972Z,100.00
2019-05-22T03:30:22.187Z,100.00
2019-05-22T03:32:52.134Z,100.00
2019-05-22T03:35:25.173Z,100.00
2019-05-22T03:37:56.284Z,100.00
2019-05-22T03:40:28.120Z,100.00
2019-05-22T03:42:58.115Z,100.00
2019-05-22T03:45:28.160Z,100.00
2019-05-22T03:47:59.122Z,100.00
2019-05-22T03:50:29.531Z,100.00
2019-05-22T03:53:01.544Z,100.00
2019-05-22T03:55:30.768Z,100.00
2019-05-22T03:58:00.408Z,100.00
2019-05-22T04:00:30.838Z,100.00
2019-05-22T04:03:00.509Z,100.00
2019-05-22T04:05:30.835Z,100.00
2019-05-22T04:07:59.749Z,100.00
2019-05-22T04:10:34.274Z,100.00
2019-05-22T04:13:04.660Z,100.00
2019-05-22T04:15:35.751Z,100.00
2019-05-22T04:18:16.260Z,100.00
2019-05-22T04:20:46.081Z,100.00
2019-05-22T04:23:15.414Z,100.00
2019-05-22T04:25:44.614Z,100.00
2019-05-22T04:28:13.464Z,100.00
2019-05-22T04:30:44.004Z,100.00
2019-05-22T04:33:13.935Z,100.00
2019-05-22T04:35:43.196Z,100.00
2019-05-22T04:38:12.556Z,100.00
2019-05-22T04:40:55.563Z,100.00
2019-05-22T04:43:26.461Z,100.00
2019-05-22T04:45:57.131Z,100.00
2019-05-22T04:48:29.389Z,100.00
2019-05-22T04:51:04.152Z,100.00
2019-05-22T04:53:34.143Z,100.00
2019-05-22T04:56:03.279Z,100.00
2019-05-22T04:58:33.710Z,100.00
2019-05-22T05:01:02.842Z,100.00
2019-05-22T05:03:32.703Z,100.00
2019-05-22T05:06:06.665Z,100.00
2019-05-22T05:08:35.288Z,100.00
2019-05-22T05:11:05.300Z,100.00
2019-05-22T05:13:34.411Z,100.00
2019-05-22T05:16:04.147Z,100.00
2019-05-22T05:18:34.329Z,100.00
2019-05-22T05:21:03.250Z,100.00
2019-05-22T05:23:32.359Z,100.00
2019-05-22T05:26:02.689Z,100.00
2019-05-22T05:28:31.897Z,100.00
2019-05-22T05:31:00.880Z,100.00
2019-05-22T05:33:33.254Z,100.00
2019-05-22T05:36:02.426Z,100.00
2019-05-22T05:38:37.170Z,100.00
2019-05-22T05:41:06.859Z,100.00
2019-05-22T05:43:36.149Z,100.00
2019-05-22T05:46:05.279Z,100.00
2019-05-22T05:48:36.079Z,100.00
2019-05-22T05:51:36.163Z,100.00
2019-05-22T05:54:15.416Z,100.00
2019-05-22T05:56:52.398Z,100.00
2019-05-22T05:59:24.592Z,100.00
2019-05-22T06:01:55.916Z,100.00
2019-05-22T06:04:39.080Z,100.00
2019-05-22T06:07:23.051Z,100.00
2019-05-22T06:10:32.736Z,100.00
2019-05-22T06:13:03.449Z,100.00
2019-05-22T06:15:46.937Z,100.00
2019-05-22T06:18:41.292Z,100.00
2019-05-22T06:21:10.665Z,100.00
2019-05-22T06:24:20.030Z,100.00
2019-05-22T06:27:09.037Z,100.00
2019-05-22T06:29:53.486Z,100.00
2019-05-22T06:33:03.017Z,100.00
2019-05-22T06:35:37.824Z,100.00
2019-05-22T06:38:52.747Z,100.00
2019-05-22T06:41:25.542Z,100.00
2019-05-22T06:44:37.115Z,100.00
2019-05-22T06:47:19.935Z,100.00
2019-05-22T06:49:53.058Z,100.00
2019-05-22T06:52:23.537Z,100.00
2019-05-22T06:54:58.629Z,100.00
2019-05-22T06:57:32.137Z,100.00
2019-05-22T07:00:14.066Z,100.00
2019-05-22T07:02:35.497Z,100.00
2019-05-22T07:05:07.110Z,100.00
2019-05-22T07:07:36.414Z,100.00
2019-05-22T07:10:08.302Z,100.00
2019-05-22T07:12:43.947Z,100.00
2019-05-22T07:15:58.280Z,100.00
2019-05-22T07:18:30.700Z,100.00
2019-05-22T07:24:40.766Z,100.00
2019-05-22T07:27:28.283Z,100.00
2019-05-22T07:29:58.114Z,100.00
2019-05-22T07:32:30.900Z,100.00
2019-05-22T07:34:58.801Z,100.00
2019-05-22T07:37:29.143Z,100.00
2019-05-22T07:39:57.970Z,100.00
2019-05-22T07:42:26.933Z,100.00
2019-05-22T07:44:55.887Z,100.00
2019-05-22T07:47:25.377Z,100.00
2019-05-22T07:49:54.626Z,100.00
2019-05-22T07:52:24.284Z,100.00
2019-05-22T07:54:54.035Z,100.00
2019-05-22T07:57:24.640Z,100.00
2019-05-22T07:59:54.425Z,100.00
2019-05-22T08:02:25.558Z,100.00
2019-05-22T08:04:54.916Z,100.00
2019-05-22T08:07:26.970Z,100.00
2019-05-22T08:09:56.866Z,100.00
2019-05-22T08:12:26.525Z,100.00
2019-05-22T08:14:55.815Z,100.00
2019-05-22T08:17:26.084Z,100.00
2019-05-22T08:19:55.264Z,100.00
2019-05-22T08:22:24.642Z,100.00
2019-05-22T08:24:53.521Z,100.00
2019-05-22T08:27:23.697Z,100.00
2019-05-22T08:29:52.696Z,100.00
2019-05-22T08:32:24.174Z,100.00
2019-05-22T08:34:53.594Z,100.00
2019-05-22T08:37:27.824Z,100.00
2019-05-22T08:39:56.797Z,100.00
2019-05-22T08:42:26.752Z,100.00
2019-05-22T08:44:56.552Z,100.00
2019-05-22T08:47:25.863Z,100.00
2019-05-22T08:49:55.162Z,100.00
2019-05-22T08:52:24.896Z,100.00
2019-05-22T08:54:54.393Z,100.00
2019-05-22T08:57:25.071Z,100.00
2019-05-22T08:59:54.010Z,100.00
2019-05-22T09:02:23.850Z,100.00
2019-05-22T09:04:53.166Z,100.00
2019-05-22T09:07:22.914Z,100.00
2019-05-22T09:09:51.981Z,100.00
2019-05-22T09:12:20.818Z,100.00
2019-05-22T09:14:50.046Z,100.00
2019-05-22T09:17:19.240Z,100.00
2019-05-22T09:19:48.541Z,100.00
2019-05-22T09:22:18.028Z,100.00
2019-05-22T09:24:47.883Z,100.00
2019-05-22T09:27:17.308Z,100.00
2019-05-22T09:29:46.206Z,99.61
2019-05-22T09:32:15.396Z,98.42
2019-05-22T09:34:44.570Z,97.90
2019-05-22T09:37:13.737Z,97.95
2019-05-22T09:39:42.713Z,98.26
2019-05-22T09:42:11.646Z,97.88
2019-05-22T09:44:40.835Z,98.26
2019-05-22T09:47:10.085Z,98.82
2019-05-22T09:49:51.802Z,99.04
2019-05-22T09:52:20.945Z,99.50
2019-05-22T09:54:49.989Z,99.04
2019-05-22T09:57:19.175Z,98.09
2019-05-22T09:59:48.318Z,97.71
2019-05-22T10:02:17.370Z,97.58
2019-05-22T10:04:46.638Z,97.36
2019-05-22T10:07:15.602Z,97.86
2019-05-22T10:09:44.812Z,97.72
2019-05-22T10:12:13.845Z,97.90
2019-05-22T10:14:43.167Z,97.70
2019-05-22T10:17:13.097Z,98.34
2019-05-22T10:19:42.770Z,98.43
2019-05-22T10:22:12.498Z,98.27
2019-05-22T10:24:42.052Z,98.26
2019-05-22T10:27:11.565Z,98.11
2019-05-22T10:29:40.966Z,97.86
2019-05-22T10:32:11.282Z,97.03
2019-05-22T10:34:40.335Z,96.36
2019-05-22T10:37:10.850Z,95.31
2019-05-22T10:39:40.117Z,95.13
2019-05-22T10:42:09.395Z,94.65
2019-05-22T10:44:38.673Z,94.61
2019-05-22T10:47:08.080Z,93.64
2019-05-22T10:49:37.659Z,93.29
2019-05-22T10:52:07.530Z,92.20
2019-05-22T10:54:37.069Z,91.24
2019-05-22T10:57:08.127Z,89.58
2019-05-22T10:59:37.733Z,89.39
2019-05-22T11:02:08.166Z,89.57
2019-05-22T11:04:38.263Z,90.05
2019-05-22T11:07:07.785Z,90.05
2019-05-22T11:09:37.158Z,90.62
2019-05-22T11:12:06.735Z,89.95
2019-05-22T11:14:36.032Z,90.14
2019-05-22T11:17:04.968Z,89.38
2019-05-22T11:19:34.094Z,88.59
2019-05-22T11:22:04.078Z,88.64
2019-05-22T11:24:33.302Z,88.64
2019-05-22T11:27:02.354Z,88.76
2019-05-22T11:29:34.427Z,87.98
2019-05-22T11:32:03.964Z,87.58
2019-05-22T11:34:33.590Z,86.97
2019-05-22T11:37:04.948Z,86.61
2019-05-22T11:39:39.541Z,86.15
2019-05-22T11:42:05.929Z,86.89
2019-05-22T11:44:35.039Z,86.53
2019-05-22T11:47:04.692Z,84.98
2019-05-22T11:49:33.893Z,85.60
2019-05-22T11:52:03.513Z,86.16
2019-05-22T11:54:32.498Z,86.58
2019-05-22T11:57:01.626Z,85.60
2019-05-22T11:59:30.711Z,86.01
2019-05-22T12:01:59.897Z,86.04
2019-05-22T12:04:44.408Z,85.77
2019-05-22T12:06:59.723Z,85.55
2019-05-22T12:09:30.813Z,85.36
2019-05-22T12:12:00.119Z,84.09
2019-05-22T12:14:29.271Z,84.30
2019-05-22T12:16:59.086Z,82.90
2019-05-22T12:19:28.343Z,82.77
2019-05-22T12:21:58.373Z,83.68
2019-05-22T12:24:35.710Z,84.01
2019-05-22T12:26:58.419Z,85.23
2019-05-22T12:29:27.845Z,84.87
2019-05-22T12:31:56.766Z,84.87
2019-05-22T12:34:26.111Z,83.58
2019-05-22T12:37:00.836Z,84.01
2019-05-22T12:39:35.156Z,83.90
2019-05-22T12:42:06.006Z,83.43
2019-05-22T12:44:35.781Z,83.14
2019-05-22T12:47:05.038Z,82.98
2019-05-22T12:56:31.428Z,81.45
2019-05-22T12:59:02.043Z,80.03
2019-05-22T13:01:31.315Z,80.25
2019-05-22T13:04:02.997Z,79.99
2019-05-22T13:06:34.347Z,80.93
2019-05-22T13:09:06.464Z,80.93
2019-05-22T13:11:39.861Z,80.47
2019-05-22T13:14:10.318Z,80.13
2019-05-22T13:16:47.348Z,80.13
2019-05-22T13:19:13.246Z,80.08
2019-05-22T13:21:43.934Z,78.87
2019-05-22T13:24:23.129Z,78.72
2019-05-22T13:26:52.460Z,78.70
2019-05-22T13:29:22.816Z,78.12
2019-05-22T13:31:52.539Z,78.46
2019-05-22T13:34:23.787Z,78.64
2019-05-22T13:36:56.723Z,79.38
2019-05-22T13:39:26.062Z,79.38
2019-05-22T13:41:55.564Z,78.91
2019-05-22T13:44:25.336Z,78.51
2019-05-22T13:46:54.448Z,78.32
2019-05-22T13:49:24.872Z,77.53
2019-05-22T13:51:55.029Z,77.25
2019-05-22T13:54:26.379Z,75.28
2019-05-22T13:56:55.975Z,74.17
2019-05-22T13:59:26.188Z,74.67
2019-05-22T14:01:55.554Z,75.39
2019-05-22T14:04:24.594Z,75.34
2019-05-22T14:06:54.099Z,75.99
2019-05-22T14:09:24.076Z,74.83
2019-05-22T14:11:54.518Z,73.71
2019-05-22T14:14:24.335Z,72.27
2019-05-22T14:16:53.834Z,72.29
2019-05-22T14:19:23.191Z,73.30
2019-05-22T14:21:52.369Z,71.71
2019-05-22T14:24:21.351Z,71.94
2019-05-22T14:26:50.708Z,71.48
2019-05-22T14:29:20.068Z,71.56
2019-05-22T14:31:49.400Z,71.44
2019-05-22T14:34:18.595Z,71.93
2019-05-22T14:36:48.326Z,71.74
2019-05-22T14:39:17.592Z,72.26
2019-05-22T14:41:46.472Z,71.90
2019-05-22T14:44:15.429Z,71.04
2019-05-22T14:46:45.262Z,70.67
2019-05-22T14:49:15.235Z,70.69
2019-05-22T14:51:44.357Z,69.04
2019-05-22T14:54:13.288Z,70.38
2019-05-22T14:56:43.815Z,70.57
2019-05-22T14:59:12.903Z,72.02
2019-05-22T15:01:41.919Z,71.59
2019-05-22T15:04:10.874Z,71.25
2019-05-22T15:06:40.723Z,71.18
2019-05-22T15:09:10.188Z,69.17
2019-05-22T15:11:39.961Z,69.29
2019-05-22T15:14:08.848Z,68.92
2019-05-22T15:16:37.769Z,67.65
2019-05-22T15:19:07.010Z,66.81
2019-05-22T15:21:36.220Z,67.48
2019-05-22T15:24:06.327Z,65.68
2019-05-22T15:26:35.462Z,66.30
2019-05-22T15:29:05.442Z,65.26
2019-05-22T15:31:34.305Z,65.73
2019-05-22T15:34:04.168Z,65.34
2019-05-22T15:36:34.035Z,64.28
2019-05-22T15:39:05.275Z,65.05
2019-05-22T15:41:34.700Z,64.11
2019-05-22T15:44:05.967Z,65.42
2019-05-22T15:46:36.014Z,65.30
2019-05-22T15:49:08.799Z,64.55
2019-05-22T15:51:39.113Z,63.38
2019-05-22T15:54:10.467Z,63.57
2019-05-22T15:56:41.205Z,63.72
2019-05-22T15:59:12.785Z,63.99
2019-05-22T16:01:44.301Z,62.44
2019-05-22T16:04:15.670Z,62.76
2019-05-22T16:06:45.700Z,62.62
2019-05-22T16:09:17.273Z,61.37
2019-05-22T16:11:50.294Z,62.41
2019-05-22T16:14:21.115Z,61.70
2019-05-22T16:16:52.550Z,61.03
2019-05-22T16:19:26.144Z,60.80
2019-05-22T16:21:59.631Z,59.75
2019-05-22T16:24:28.989Z,58.40
2019-05-22T16:26:58.630Z,55.90
2019-05-22T16:29:28.610Z,57.26
2019-05-22T16:32:00.396Z,55.32
2019-05-22T16:34:30.317Z,56.28
2019-05-22T16:37:03.513Z,58.67
2019-05-22T16:39:30.940Z,60.49
2019-05-22T16:42:00.340Z,60.28
2019-05-22T16:44:29.574Z,60.92
2019-05-22T16:46:59.191Z,60.99
2019-05-22T16:49:28.594Z,61.29
2019-05-22T16:51:58.710Z,61.38
2019-05-22T16:54:30.084Z,60.95
2019-05-22T16:56:59.130Z,60.90
2019-05-22T16:59:28.785Z,59.85
2019-05-22T17:02:00.651Z,60.82
2019-05-22T17:04:29.949Z,61.01
2019-05-22T17:07:00.499Z,61.57
2019-05-22T17:09:30.694Z,62.07
2019-05-22T17:12:04.442Z,61.76
2019-05-22T17:14:32.194Z,61.98
2019-05-22T17:17:03.696Z,62.87
2019-05-22T17:19:33.153Z,62.43
2019-05-22T17:22:03.839Z,64.12
2019-05-22T17:24:34.327Z,64.60
2019-05-22T17:27:04.483Z,63.04
2019-05-22T17:29:34.250Z,64.05
2019-05-22T17:32:05.239Z,63.60
2019-05-22T17:34:37.289Z,64.19
2019-05-22T17:37:11.448Z,65.34
2019-05-22T17:39:44.221Z,65.82
2019-05-22T17:42:15.902Z,66.07
2019-05-22T17:44:47.701Z,65.91
2019-05-22T17:47:17.173Z,66.82
2019-05-22T17:49:47.436Z,66.71
2019-05-22T17:52:18.771Z,66.91
2019-05-22T17:54:50.093Z,67.84
2019-05-22T17:57:19.649Z,67.78
2019-05-22T17:59:48.946Z,67.44
2019-05-22T18:02:20.163Z,68.76
2019-05-22T18:04:49.981Z,68.15
2019-05-22T18:07:19.849Z,68.37
2019-05-22T18:09:50.024Z,68.42
2019-05-22T18:12:19.276Z,70.17
2019-05-22T18:14:49.010Z,71.06
2019-05-22T18:17:18.692Z,71.33
2019-05-22T18:19:48.357Z,71.62
2019-05-22T18:22:18.385Z,72.43
2019-05-22T18:24:48.674Z,73.09
2019-05-22T18:27:17.898Z,72.60
2019-05-22T18:29:46.939Z,73.47
2019-05-22T18:32:16.193Z,74.12
2019-05-22T18:34:45.461Z,74.56
2019-05-22T18:37:14.810Z,75.30
2019-05-22T18:39:43.998Z,75.61
2019-05-22T18:42:13.371Z,75.98
2019-05-22T18:44:42.292Z,76.33
2019-05-22T18:47:11.850Z,76.85
2019-05-22T18:49:41.315Z,76.92
2019-05-22T18:52:13.504Z,77.80
2019-05-22T18:54:42.494Z,77.74
2019-05-22T18:57:12.582Z,79.06
2019-05-22T19:04:06.350Z,79.05
2019-05-22T19:06:36.718Z,79.15
2019-05-22T19:09:09.352Z,79.43
2019-05-22T19:11:38.787Z,78.89
2019-05-22T19:14:08.303Z,79.05
2019-05-22T19:16:37.719Z,79.12
2019-05-22T19:19:06.843Z,79.13
2019-05-22T19:21:35.821Z,79.95
2019-05-22T19:24:05.193Z,80.10
2019-05-22T19:26:34.382Z,80.09
2019-05-22T19:29:04.483Z,80.21
2019-05-22T19:31:33.592Z,80.51
2019-05-22T19:34:02.895Z,80.62
2019-05-22T19:36:31.890Z,80.99
2019-05-22T19:39:06.069Z,81.18
2019-05-22T19:41:35.687Z,81.52
2019-05-22T19:44:05.557Z,81.71
2019-05-22T19:46:34.510Z,81.90
2019-05-22T19:49:04.300Z,82.32
2019-05-22T19:51:33.815Z,82.61
2019-05-22T19:54:02.857Z,83.97
2019-05-22T19:56:52.693Z,84.99
2019-05-22T19:59:22.699Z,85.43
2019-05-22T20:01:53.082Z,85.52
2019-05-22T20:04:21.978Z,85.79
2019-05-22T20:06:51.575Z,85.64
2019-05-22T20:09:20.463Z,85.82
2019-05-22T20:11:49.885Z,86.67
2019-05-22T20:14:19.029Z,87.19
2019-05-22T20:16:48.123Z,87.80
2019-05-22T20:19:17.556Z,87.32
2019-05-22T20:21:47.219Z,87.15
2019-05-22T20:24:27.449Z,87.20
2019-05-22T20:26:57.218Z,87.73
2019-05-22T20:29:26.741Z,87.81
2019-05-22T20:31:56.168Z,89.41
2019-05-22T20:34:25.494Z,89.85
2019-05-22T20:36:58.397Z,89.17
2019-05-22T20:39:29.645Z,88.97
2019-05-22T20:41:58.860Z,89.42
2019-05-22T20:44:28.565Z,89.93
2019-05-22T20:46:58.811Z,89.99
2019-05-22T20:49:40.516Z,89.95
2019-05-22T20:52:14.597Z,90.02
2019-05-22T20:54:49.641Z,90.17
2019-05-22T20:57:20.490Z,91.32
2019-05-22T20:59:50.065Z,91.38
2019-05-22T21:02:19.901Z,91.13
2019-05-22T21:04:51.444Z,92.26
2019-05-22T21:07:26.681Z,92.42
2019-05-22T21:09:56.171Z,92.08
2019-05-22T21:12:25.905Z,91.89
2019-05-22T21:14:54.885Z,92.28
2019-05-22T21:17:25.200Z,93.29
2019-05-22T21:19:54.432Z,93.46
2019-05-22T21:22:25.221Z,92.51
2019-05-22T21:24:54.235Z,91.81
2019-05-22T21:27:30.141Z,92.53
2019-05-22T21:29:59.589Z,92.97
2019-05-22T21:32:28.468Z,93.40
2019-05-22T21:35:03.466Z,92.68
2019-05-22T21:37:33.228Z,92.65
2019-05-22T21:40:05.699Z,93.12
2019-05-22T21:42:37.574Z,92.83
2019-05-22T21:45:07.135Z,94.00
2019-05-22T21:47:38.549Z,94.40
2019-05-22T21:53:48.707Z,94.87
2019-05-22T21:56:17.821Z,95.37
2019-05-22T21:58:47.425Z,94.98
2019-05-22T22:01:25.470Z,94.71
2019-05-22T22:04:04.398Z,94.61
2019-05-22T22:06:33.517Z,95.71
2019-05-22T22:12:31.130Z,95.82
2019-05-22T22:15:00.078Z,96.12
2019-05-22T22:17:30.662Z,95.96
2019-05-22T22:20:12.800Z,95.66
2019-05-22T22:22:42.426Z,96.12
2019-05-22T22:25:13.398Z,95.66
2019-05-22T22:27:43.083Z,95.46
2019-05-22T22:30:22.574Z,94.38
2019-05-22T22:32:51.669Z,94.16
2019-05-22T22:35:40.647Z,94.53
2019-05-22T22:38:10.258Z,95.54
2019-05-22T22:40:40.945Z,96.68
2019-05-22T22:43:12.558Z,96.81
2019-05-22T22:45:56.434Z,97.00
2019-05-22T22:48:32.059Z,96.63
2019-05-22T22:51:01.097Z,96.99
2019-05-22T22:53:32.471Z,97.44
2019-05-22T22:56:01.556Z,97.35
2019-05-22T22:58:31.308Z,97.11
2019-05-22T23:01:02.663Z,97.33
2019-05-22T23:03:33.398Z,96.68
2019-05-22T23:06:03.638Z,97.25
2019-05-22T23:08:34.781Z,97.01
2019-05-22T23:11:06.851Z,96.75
2019-05-22T23:13:37.318Z,97.53
2019-05-22T23:16:06.555Z,98.63
2019-05-22T23:19:06.969Z,98.41
2019-05-22T23:21:36.206Z,98.11
2019-05-22T23:24:04.320Z,98.24
2019-05-22T23:26:36.075Z,98.19
2019-05-22T23:29:06.981Z,98.33
2019-05-22T23:31:36.122Z,98.55
2019-05-22T23:34:06.474Z,99.16
2019-05-22T23:36:36.055Z,99.89
2019-05-22T23:39:10.703Z,99.69
2019-05-22T23:41:40.963Z,98.84
2019-05-22T23:44:12.921Z,98.03
2019-05-22T23:46:42.996Z,97.88
2019-05-22T23:49:13.489Z,99.31
2019-05-22T23:51:43.467Z,99.30
2019-05-22T23:54:13.135Z,99.26
2019-05-22T23:56:44.393Z,98.84
